Time;durP1;ratioP1;P1;durP2;ratioP2;P2;SDS_P1;SDS_P2;PMS_P1;PMS_P2;Temp;Humidity;BMP_temperature;BMP_pressure;BME280_temperature;BME280_humidity;BME280_pressure;Samples;Min_cycle;Max_cycle;Signal;HPM_P1;HPM_P2
2023/03/08 00:01:22;;;;;;;9.53;7.70;;;;;;;3.38;69.23;152232.00;5094686;27;20989;-94
2023/03/08 00:03:51;;;;;;;10.03;7.30;;;;;;;3.36;70.20;152228.09;5117658;27;20436;-94
2023/03/08 00:06:18;;;;;;;9.90;6.90;;;;;;;3.42;69.42;152243.56;5100680;27;20482;-94
2023/03/08 00:08:49;;;;;;;11.00;8.03;;;;;;;3.36;69.98;152228.09;5086160;28;20795;-94
2023/03/08 00:11:16;;;;;;;8.87;6.97;;;;;;;3.36;69.43;152226.84;5075104;28;20448;-94
2023/03/08 00:13:43;;;;;;;10.20;7.30;;;;;;;3.38;70.01;152233.28;5073538;28;20433;-93
2023/03/08 00:16:11;;;;;;;10.30;7.53;;;;;;;3.38;69.36;152233.28;5076589;28;20477;-93
2023/03/08 00:18:38;;;;;;;10.40;6.80;;;;;;;3.45;70.27;152250.00;5061925;27;20493;-93
2023/03/08 00:21:07;;;;;;;10.07;7.70;;;;;;;3.50;70.39;152264.16;5078544;28;20481;-93
2023/03/08 00:23:34;;;;;;;13.83;7.67;;;;;;;3.44;70.42;152247.44;5059802;28;20503;-93
2023/03/08 00:26:02;;;;;;;8.37;7.03;;;;;;;3.40;70.16;152238.41;5076849;28;20472;-93
2023/03/08 00:28:29;;;;;;;12.37;7.97;;;;;;;3.42;71.05;152243.56;5075849;28;20433;-92
2023/03/08 00:30:58;;;;;;;9.30;7.03;;;;;;;3.46;70.33;152253.88;5072082;28;20442;-94
2023/03/08 00:33:25;;;;;;;10.90;7.87;;;;;;;3.45;70.78;152250.00;5076096;28;20955;-93
2023/03/08 00:35:56;;;;;;;10.73;7.00;;;;;;;3.41;70.01;152241.00;5059626;28;20827;-94
2023/03/08 00:38:23;;;;;;;9.73;6.90;;;;;;;3.44;70.35;152248.69;5063893;28;20441;-93
2023/03/08 00:40:49;;;;;;;11.30;7.33;;;;;;;3.46;70.61;152252.59;5068160;28;20505;-93
2023/03/08 00:43:18;;;;;;;10.97;7.77;;;;;;;3.47;70.86;152256.44;5080327;28;20433;-94
2023/03/08 00:45:44;;;;;;;10.40;7.60;;;;;;;3.42;70.42;152242.25;5078199;28;20449;-94
2023/03/08 00:48:11;;;;;;;11.50;8.50;;;;;;;3.48;70.72;152259.00;5078757;28;20874;-94
2023/03/08 00:50:38;;;;;;;10.87;7.80;;;;;;;3.42;71.17;152243.56;5079570;28;20444;-94
2023/03/08 00:53:05;;;;;;;9.90;7.53;;;;;;;3.43;71.84;152246.16;5075727;28;21169;-94
2023/03/08 00:55:32;;;;;;;11.30;7.87;;;;;;;3.48;71.01;152259.00;5060908;28;20510;-94
2023/03/08 00:57:59;;;;;;;11.97;8.10;;;;;;;3.40;70.51;152237.13;5075062;28;20453;-94
2023/03/08 01:00:27;;;;;;;9.43;7.40;;;;;;;3.40;72.26;152238.41;5074432;28;20491;-94
2023/03/08 01:02:55;;;;;;;11.60;6.57;;;;;;;3.39;71.48;152235.81;5079486;28;20526;-94
2023/03/08 01:05:22;;;;;;;12.00;8.57;;;;;;;3.34;71.47;152222.97;5086249;27;20858;-94
2023/03/08 01:07:49;;;;;;;10.67;7.23;;;;;;;3.34;72.07;152222.97;5099754;27;20512;-93
2023/03/08 01:10:18;;;;;;;11.10;7.53;;;;;;;3.37;72.00;152230.69;5076028;28;20433;-94
2023/03/08 01:12:44;;;;;;;11.07;7.13;;;;;;;3.36;71.45;152228.09;5059684;28;20525;-94
2023/03/08 01:15:11;;;;;;;11.67;7.13;;;;;;;3.33;71.43;152220.41;5075299;28;20441;-93
2023/03/08 01:17:41;;;;;;;11.67;7.80;;;;;;;3.28;72.37;152207.56;5078884;28;20505;-93
2023/03/08 01:20:09;;;;;;;12.60;8.07;;;;;;;3.29;72.88;152210.09;5074985;28;20456;-93
2023/03/08 01:22:36;;;;;;;9.30;7.03;;;;;;;3.26;72.21;152202.38;5075268;28;20453;-93
2023/03/08 01:25:03;;;;;;;10.93;7.47;;;;;;;3.25;71.69;152199.81;5076021;28;20928;-94
2023/03/08 01:27:29;;;;;;;13.93;7.97;;;;;;;3.21;72.14;152188.22;5071900;28;20462;-94
2023/03/08 01:29:56;;;;;;;10.80;8.17;;;;;;;3.15;71.73;152172.81;5070653;28;20430;-94
2023/03/08 01:32:24;;;;;;;10.23;7.67;;;;;;;3.13;72.42;152167.63;5060662;28;20469;-94
2023/03/08 01:34:53;;;;;;;9.63;7.63;;;;;;;3.06;71.65;152150.91;5058961;28;20880;-94
2023/03/08 01:37:19;;;;;;;9.70;6.50;;;;;;;3.06;73.43;152152.22;5068962;28;20443;-94
2023/03/08 01:39:46;;;;;;;12.30;8.00;;;;;;;2.96;72.81;152125.19;5079226;28;20441;-94
2023/03/08 01:42:13;;;;;;;11.43;8.10;;;;;;;2.91;73.03;152112.34;5078699;28;20886;-94
2023/03/08 01:44:51;;;;;;;12.07;8.63;;;;;;;2.82;72.85;152089.16;5078908;28;20495;-94
2023/03/08 01:47:19;;;;;;;11.90;8.33;;;;;;;2.86;73.25;152100.72;5079191;28;20477;-94
2023/03/08 01:50:11;;;;;;;10.30;7.77;;;;;;;2.85;74.09;152098.19;5075812;28;20525;-94
2023/03/08 01:52:40;;;;;;;11.23;7.63;;;;;;;2.82;74.40;152089.16;5072547;28;20476;-94
2023/03/08 01:55:10;;;;;;;10.10;7.70;;;;;;;2.76;73.65;152073.72;5059323;28;20453;-94
2023/03/08 01:57:39;;;;;;;9.33;6.40;;;;;;;2.78;74.00;152078.88;5066263;28;20489;-94
2023/03/08 02:00:09;;;;;;;9.37;7.13;;;;;;;2.70;74.44;152058.31;5073353;28;20472;-94
2023/03/08 02:02:49;;;;;;;11.70;7.27;;;;;;;2.67;74.57;152051.88;5095616;28;20449;-94
2023/03/08 02:05:19;;;;;;;11.00;7.10;;;;;;;2.61;75.30;152035.13;5079123;28;20455;-94
2023/03/08 02:07:50;;;;;;;10.10;7.57;;;;;;;2.62;74.59;152037.72;5079022;28;20444;-95
2023/03/08 02:10:17;;;;;;;8.90;7.17;;;;;;;2.54;74.52;152017.16;5072250;28;20441;-94
2023/03/08 02:12:44;;;;;;;10.80;6.90;;;;;;;2.45;75.31;151996.56;5069970;28;20455;-94
2023/03/08 02:15:13;;;;;;;9.37;6.53;;;;;;;2.41;75.19;151986.25;5074765;28;20483;-94
2023/03/08 02:17:42;;;;;;;10.07;7.27;;;;;;;2.40;75.50;151983.72;5054655;28;20478;-94
2023/03/08 02:20:13;;;;;;;10.17;6.60;;;;;;;2.42;75.70;151988.84;5088604;28;20440;-93
2023/03/08 02:22:42;;;;;;;9.90;7.10;;;;;;;2.42;75.36;151988.84;5074934;28;20490;-93
2023/03/08 02:25:13;;;;;;;9.37;6.83;;;;;;;2.44;75.71;151993.97;5076661;28;20456;-94
2023/03/08 02:27:40;;;;;;;10.50;7.60;;;;;;;2.43;75.30;151990.13;5085691;28;20505;-93
2023/03/08 02:30:08;;;;;;;10.57;7.33;;;;;;;2.41;76.35;151986.25;5058585;28;20449;-93
2023/03/08 02:32:35;;;;;;;11.03;7.50;;;;;;;2.43;75.51;151990.13;5078996;28;20507;-94
2023/03/08 02:35:02;;;;;;;9.17;6.70;;;;;;;2.42;75.07;151988.84;5078714;28;20434;-94
2023/03/08 02:37:28;;;;;;;8.87;6.53;;;;;;;2.45;75.14;151995.28;5075252;28;20967;-94
2023/03/08 02:39:57;;;;;;;9.83;6.87;;;;;;;2.53;75.33;152015.84;5058568;28;20426;-94
2023/03/08 02:42:23;;;;;;;10.90;6.90;;;;;;;2.48;75.58;152003.00;5075393;28;20470;-93
2023/03/08 02:44:50;;;;;;;10.10;7.60;;;;;;;2.50;74.80;152006.84;5078444;28;20463;-94
2023/03/08 02:47:17;;;;;;;9.50;7.40;;;;;;;2.54;74.53;152017.16;5078777;28;20426;-94
2023/03/08 02:49:44;;;;;;;10.17;7.40;;;;;;;2.54;74.41;152017.16;5077846;28;20426;-93
2023/03/08 02:52:11;;;;;;;9.10;6.43;;;;;;;2.53;75.03;152014.56;5059273;28;21007;-94
2023/03/08 02:54:38;;;;;;;10.00;6.60;;;;;;;2.53;74.67;152014.56;5076164;28;20438;-94
2023/03/08 02:57:06;;;;;;;8.93;6.80;;;;;;;2.61;74.87;152035.13;5076658;28;20475;-94
2023/03/08 02:59:34;;;;;;;10.27;6.87;;;;;;;2.63;74.37;152041.56;5078521;28;20418;-94
2023/03/08 03:02:02;;;;;;;9.57;7.30;;;;;;;2.59;74.31;152030.00;5074876;28;20945;-94
2023/03/08 03:04:29;;;;;;;12.03;6.97;;;;;;;2.63;74.81;152040.25;5087386;28;20844;-94
2023/03/08 03:06:57;;;;;;;11.10;6.80;;;;;;;2.58;75.29;152027.41;5078158;28;20487;-94
2023/03/08 03:09:24;;;;;;;10.20;7.20;;;;;;;2.68;74.55;152053.13;5095229;28;20495;-94
2023/03/08 03:11:51;;;;;;;12.20;7.43;;;;;;;2.61;75.03;152035.13;5074782;28;20875;-94
2023/03/08 03:14:20;;;;;;;9.17;7.10;;;;;;;2.54;74.69;152018.44;5092272;28;20497;-93
2023/03/08 03:16:47;;;;;;;10.07;6.90;;;;;;;2.50;76.22;152006.84;5115344;28;20567;-93
2023/03/08 03:19:14;;;;;;;9.80;6.43;;;;;;;2.52;75.34;152013.25;5086817;28;20438;-93
2023/03/08 03:21:41;;;;;;;10.03;6.63;;;;;;;2.53;75.10;152014.56;5061974;28;20980;-94
2023/03/08 03:24:08;;;;;;;9.90;6.40;;;;;;;2.58;74.24;152027.41;5073725;28;20492;-94
2023/03/08 03:26:50;;;;;;;8.80;6.80;;;;;;;2.55;75.62;152019.69;5073733;28;20447;-94
2023/03/08 03:29:17;;;;;;;11.00;6.90;;;;;;;2.55;74.74;152020.97;5058119;28;20802;-94
2023/03/08 03:31:48;;;;;;;10.27;6.60;;;;;;;2.58;74.93;152028.72;5074319;28;20446;-94
2023/03/08 03:34:15;;;;;;;9.70;7.43;;;;;;;2.62;76.05;152037.72;5094880;28;20487;-93
2023/03/08 03:36:44;;;;;;;9.63;6.50;;;;;;;2.57;74.63;152026.13;5079398;28;20487;-94
2023/03/08 03:39:11;;;;;;;8.20;6.60;;;;;;;2.60;75.20;152033.84;5077645;28;20722;-93
2023/03/08 03:41:40;;;;;;;9.33;6.67;;;;;;;2.56;74.75;152023.56;5077348;28;20833;-93
2023/03/08 03:44:11;;;;;;;11.30;7.00;;;;;;;2.63;74.50;152040.25;5077813;28;20441;-94
2023/03/08 03:46:39;;;;;;;9.30;6.77;;;;;;;2.59;75.10;152030.00;5074248;28;20437;-93
2023/03/08 03:49:09;;;;;;;10.07;7.47;;;;;;;2.60;74.69;152032.53;5074117;28;20458;-94
2023/03/08 03:51:39;;;;;;;9.13;6.07;;;;;;;2.59;74.73;152030.00;5057642;28;20444;-94
2023/03/08 03:54:18;;;;;;;8.30;6.03;;;;;;;2.60;75.17;152032.53;5057544;28;20446;-94
2023/03/08 03:56:46;;;;;;;10.63;6.47;;;;;;;2.62;74.82;152037.72;5056959;28;20439;-93
2023/03/08 03:59:13;;;;;;;7.53;5.77;;;;;;;2.57;75.08;152024.88;5057346;28;20807;-93
2023/03/08 04:01:40;;;;;;;10.40;6.60;;;;;;;2.56;75.47;152022.28;5057366;28;20568;-94
2023/03/08 04:04:17;;;;;;;10.10;6.40;;;;;;;2.53;75.64;152015.84;5071544;28;20449;-93
2023/03/08 04:06:46;;;;;;;10.23;6.30;;;;;;;2.54;76.14;152017.16;5078420;28;20436;-94
2023/03/08 04:09:17;;;;;;;8.23;6.33;;;;;;;2.55;75.95;152019.69;5097458;28;20844;-94
2023/03/08 04:11:48;;;;;;;9.10;6.80;;;;;;;2.55;75.55;152019.69;5058706;28;20488;-94
2023/03/08 04:14:19;;;;;;;9.17;6.40;;;;;;;2.54;75.54;152017.16;5057373;28;20450;-94
2023/03/08 04:16:46;;;;;;;10.03;7.40;;;;;;;2.55;76.12;152020.97;5059780;28;20472;-94
2023/03/08 04:19:23;;;;;;;9.67;6.87;;;;;;;2.55;75.26;152020.97;5086358;28;20486;-94
2023/03/08 04:21:53;;;;;;;8.70;6.83;;;;;;;2.60;75.04;152032.53;5077430;28;20497;-94
2023/03/08 04:24:24;;;;;;;7.57;6.53;;;;;;;2.60;75.70;152033.84;5076874;28;20430;-93
2023/03/08 04:26:54;;;;;;;9.47;6.37;;;;;;;2.59;76.26;152030.00;5066512;28;20437;-93
2023/03/08 04:29:21;;;;;;;10.30;7.33;;;;;;;2.57;75.38;152026.13;5056698;28;20445;-93
2023/03/08 04:31:48;;;;;;;9.70;7.10;;;;;;;2.55;76.17;152019.69;5064023;28;20929;-94
2023/03/08 04:34:18;;;;;;;12.83;7.60;;;;;;;2.58;76.47;152027.41;5062927;28;20499;-94
2023/03/08 04:36:50;;;;;;;11.07;7.60;;;;;;;2.56;76.22;152022.28;5091445;28;20455;-94
2023/03/08 04:39:17;;;;;;;9.50;6.80;;;;;;;2.58;76.12;152027.41;5062208;28;20445;-94
2023/03/08 04:41:44;;;;;;;11.13;7.43;;;;;;;2.60;75.70;152032.53;5076245;28;20476;-93
2023/03/08 04:44:40;;;;;;;7.87;6.23;;;;;;;2.63;75.89;152041.56;5064233;28;20496;-94
2023/03/08 04:47:11;;;;;;;10.23;7.00;;;;;;;2.64;76.04;152042.84;5076019;28;20535;-94
2023/03/08 04:49:43;;;;;;;10.70;7.20;;;;;;;2.70;75.75;152058.31;5056852;28;20472;-91
2023/03/08 04:52:12;;;;;;;11.00;7.50;;;;;;;2.71;76.20;152060.84;5069364;28;20433;-93
2023/03/08 04:54:41;;;;;;;9.77;7.20;;;;;;;2.67;75.13;152050.56;5072178;28;20437;-93
2023/03/08 04:57:17;;;;;;;9.77;6.97;;;;;;;2.68;76.18;152053.13;5084422;28;20560;-92
2023/03/08 04:59:44;;;;;;;10.50;7.80;;;;;;;2.70;75.36;152058.31;5062168;28;20453;-93
2023/03/08 05:02:12;;;;;;;9.47;7.10;;;;;;;2.73;74.92;152067.28;5081708;28;20904;-93
2023/03/08 05:04:39;;;;;;;11.63;7.87;;;;;;;2.73;75.32;152065.97;5067921;28;20453;-93
2023/03/08 05:07:06;;;;;;;10.13;7.50;;;;;;;2.70;75.48;152058.31;5057769;28;20443;-93
2023/03/08 05:09:37;;;;;;;11.23;7.80;;;;;;;2.72;75.91;152063.44;5063813;28;20442;-93
2023/03/08 05:12:04;;;;;;;10.50;7.60;;;;;;;2.72;75.95;152063.44;5063270;28;20438;-92
2023/03/08 05:14:44;;;;;;;11.77;7.30;;;;;;;2.75;75.46;152071.16;5064878;28;20486;-93
2023/03/08 05:17:11;;;;;;;11.47;8.07;;;;;;;2.76;75.02;152073.72;5066305;28;20474;-93
2023/03/08 05:19:38;;;;;;;11.47;7.30;;;;;;;2.78;75.55;152078.88;5080666;28;20460;-94
2023/03/08 05:22:06;;;;;;;9.27;6.90;;;;;;;2.77;75.46;152076.28;5074462;28;20474;-93
2023/03/08 05:24:40;;;;;;;10.47;7.23;;;;;;;2.84;75.64;152095.59;5066357;28;20448;-94
2023/03/08 05:27:09;;;;;;;12.23;7.80;;;;;;;2.87;76.28;152102.00;5070658;28;20430;-93
2023/03/08 05:29:36;;;;;;;12.70;8.50;;;;;;;2.88;75.25;152104.59;5055568;28;20447;-93
2023/03/08 05:32:05;;;;;;;9.33;7.77;;;;;;;2.90;75.96;152109.75;5067320;28;20554;-93
2023/03/08 05:34:33;;;;;;;11.07;7.50;;;;;;;2.92;74.86;152114.88;5062061;28;20434;-93
2023/03/08 05:37:01;;;;;;;9.87;7.53;;;;;;;2.98;75.15;152130.31;5059160;28;20449;-94
2023/03/08 05:39:29;;;;;;;9.80;7.43;;;;;;;2.89;76.08;152108.44;5062587;28;20445;-94
2023/03/08 05:42:03;;;;;;;11.40;7.80;;;;;;;2.94;75.28;152120.00;5063046;28;20469;-93
2023/03/08 05:44:37;;;;;;;14.67;8.30;;;;;;;2.93;75.38;152117.47;5067858;28;20513;-94
2023/03/08 05:47:05;;;;;;;11.00;7.90;;;;;;;2.94;76.30;152120.00;5060942;28;20434;-93
2023/03/08 05:49:33;;;;;;;9.87;7.73;;;;;;;2.95;75.39;152122.59;5062778;28;20521;-93
2023/03/08 05:52:00;;;;;;;15.37;8.53;;;;;;;3.03;75.35;152143.19;5069759;28;20492;-93
2023/03/08 05:54:28;;;;;;;11.27;8.80;;;;;;;3.05;74.59;152149.63;5063221;28;20426;-93
2023/03/08 05:56:59;;;;;;;11.27;8.13;;;;;;;3.01;76.47;152138.06;5062254;28;20446;-92
2023/03/08 05:59:27;;;;;;;12.13;8.80;;;;;;;2.96;76.74;152125.19;5071694;28;20519;-92
2023/03/08 06:01:58;;;;;;;11.63;8.33;;;;;;;3.03;76.35;152144.47;5081048;28;20463;-93
2023/03/08 06:04:33;;;;;;;11.67;8.10;;;;;;;3.03;76.22;152143.19;5082172;28;20445;-93
2023/03/08 06:07:00;;;;;;;12.87;8.00;;;;;;;3.02;75.60;152141.91;5072798;28;20437;-92
2023/03/08 06:09:34;;;;;;;13.90;9.27;;;;;;;3.03;76.65;152144.47;5066961;28;20465;-93
2023/03/08 06:12:01;;;;;;;14.07;9.03;;;;;;;3.04;77.35;152145.78;5072190;28;20502;-93
2023/03/08 06:14:30;;;;;;;11.83;9.20;;;;;;;3.02;76.56;152140.59;5070933;28;20457;-93
2023/03/08 06:16:58;;;;;;;12.70;9.13;;;;;;;3.08;77.15;152156.06;5088307;28;20521;-93
2023/03/08 06:19:27;;;;;;;14.53;10.20;;;;;;;3.05;76.46;152149.63;5065992;28;20457;-92
2023/03/08 06:21:56;;;;;;;13.43;9.07;;;;;;;3.04;76.75;152145.78;5080923;28;20999;-94
2023/03/08 06:24:23;;;;;;;13.00;8.70;;;;;;;3.06;76.31;152152.22;5084454;28;20519;-93
2023/03/08 06:26:51;;;;;;;12.60;8.47;;;;;;;3.09;76.48;152158.66;5070914;28;20865;-93
2023/03/08 06:29:18;;;;;;;14.10;9.20;;;;;;;3.11;76.33;152162.47;5079701;28;20481;-93
2023/03/08 06:31:46;;;;;;;15.50;10.23;;;;;;;3.10;76.40;152161.19;5072323;28;20449;-93
2023/03/08 06:34:15;;;;;;;12.17;8.60;;;;;;;3.11;77.42;152163.78;5069829;28;20454;-93
2023/03/08 06:36:43;;;;;;;14.40;9.40;;;;;;;3.10;76.36;152161.19;5068315;28;20471;-93
2023/03/08 06:39:09;;;;;;;11.53;9.07;;;;;;;3.13;76.08;152167.63;5071587;28;20481;-93
2023/03/08 06:41:37;;;;;;;14.27;9.17;;;;;;;3.14;76.05;152171.50;5064428;28;20536;-93
2023/03/08 06:44:05;;;;;;;13.23;8.63;;;;;;;3.18;75.71;152180.53;5086954;28;20450;-93
2023/03/08 06:46:32;;;;;;;12.97;9.13;;;;;;;3.22;75.09;152192.09;5070097;28;20430;-93
2023/03/08 06:49:02;;;;;;;15.17;10.37;;;;;;;3.22;75.03;152192.09;5072662;28;20985;-93
2023/03/08 06:51:31;;;;;;;14.70;10.00;;;;;;;3.23;74.74;152194.63;5086818;28;20719;-93
2023/03/08 06:53:59;;;;;;;13.53;10.00;;;;;;;3.25;75.01;152198.53;5072379;28;20441;-93
2023/03/08 06:56:28;;;;;;;12.90;9.53;;;;;;;3.27;74.55;152204.97;5068384;28;21144;-94
2023/03/08 06:58:54;;;;;;;13.43;9.57;;;;;;;3.32;74.20;152217.81;5069434;28;20984;-92
2023/03/08 07:01:21;;;;;;;13.03;9.40;;;;;;;3.29;74.75;152208.81;5088258;28;20872;-93
2023/03/08 07:03:49;;;;;;;13.70;9.40;;;;;;;3.40;74.36;152238.41;5081842;28;20473;-92
2023/03/08 07:06:17;;;;;;;16.20;10.20;;;;;;;3.40;74.73;152238.41;5069596;28;20454;-93
2023/03/08 07:08:43;;;;;;;13.53;9.63;;;;;;;3.40;74.36;152238.41;5054510;28;20706;-94
2023/03/08 07:11:10;;;;;;;13.17;10.50;;;;;;;3.44;74.32;152248.69;5063815;28;20477;-93
2023/03/08 07:13:37;;;;;;;14.83;9.77;;;;;;;3.46;74.77;152253.88;5066417;28;20549;-94
2023/03/08 07:16:08;;;;;;;16.63;10.60;;;;;;;3.45;75.55;152251.28;5066357;28;20451;-93
2023/03/08 07:18:35;;;;;;;16.47;11.10;;;;;;;3.46;75.50;152253.88;5064184;28;20446;-93
2023/03/08 07:21:02;;;;;;;17.50;11.00;;;;;;;3.50;75.08;152262.84;5082784;28;20879;-93
2023/03/08 07:23:30;;;;;;;13.67;9.17;;;;;;;3.49;74.98;152261.59;5066117;28;20536;-94
2023/03/08 07:25:57;;;;;;;12.10;8.53;;;;;;;3.50;74.88;152262.84;5073280;28;20537;-94
2023/03/08 07:28:24;;;;;;;13.00;9.77;;;;;;;3.52;75.07;152269.28;5074622;28;20532;-93
2023/03/08 07:30:52;;;;;;;13.70;9.00;;;;;;;3.57;74.58;152280.91;5074591;28;20500;-94
2023/03/08 07:33:21;;;;;;;12.70;9.77;;;;;;;3.61;74.51;152292.47;5068697;28;20477;-94
2023/03/08 07:35:48;;;;;;;11.63;9.17;;;;;;;3.60;75.28;152289.88;5066746;28;20798;-93
2023/03/08 07:38:15;;;;;;;13.47;10.43;;;;;;;3.63;75.09;152297.63;5071958;28;20442;-94
2023/03/08 07:40:43;;;;;;;15.10;9.90;;;;;;;3.64;75.33;152298.91;5065259;28;20861;-93
2023/03/08 07:43:10;;;;;;;16.23;10.50;;;;;;;3.63;74.95;152297.63;5078363;28;20506;-94
2023/03/08 07:46:03;;;;;;;15.00;9.50;;;;;;;3.72;75.07;152319.50;5058771;28;20811;-93
2023/03/08 07:48:30;;;;;;;14.90;10.20;;;;;;;3.72;75.95;152318.22;5072240;28;20485;-93
2023/03/08 07:51:01;;;;;;;12.93;9.27;;;;;;;3.80;76.10;152340.13;5093970;28;20515;-93
2023/03/08 07:53:28;;;;;;;15.87;8.77;;;;;;;3.84;76.06;152349.16;5069901;28;20456;-94
2023/03/08 07:55:59;;;;;;;14.93;10.27;;;;;;;3.89;77.16;152363.25;5072270;28;20444;-93
2023/03/08 07:58:26;;;;;;;13.17;8.83;;;;;;;3.87;78.07;152358.13;5068147;28;20453;-93
2023/03/08 08:00:52;;;;;;;12.43;8.87;;;;;;;3.88;78.99;152360.72;5070099;28;20451;-93
2023/03/08 08:03:20;;;;;;;13.83;9.33;;;;;;;3.88;80.60;152359.44;5065061;28;20485;-93
2023/03/08 08:05:47;;;;;;;11.20;7.80;;;;;;;3.92;81.35;152369.75;5071578;28;20449;-93
2023/03/08 08:08:14;;;;;;;11.70;8.23;;;;;;;3.91;82.48;152367.16;5068031;28;20508;-94
2023/03/08 08:10:41;;;;;;;9.70;8.27;;;;;;;3.91;84.00;152368.47;5068463;28;20964;-94
2023/03/08 08:13:09;;;;;;;12.57;8.83;;;;;;;3.96;83.40;152380.03;5076371;28;20455;-93
2023/03/08 08:15:36;;;;;;;14.07;9.80;;;;;;;4.03;83.44;152398.03;5068158;28;20853;-93
2023/03/08 08:18:03;;;;;;;10.40;7.83;;;;;;;4.05;83.55;152403.22;5072704;28;20523;-94
2023/03/08 08:20:30;;;;;;;13.20;7.97;;;;;;;4.04;83.32;152400.63;5072160;28;21050;-94
2023/03/08 08:22:56;;;;;;;12.47;8.70;;;;;;;4.05;84.06;152404.47;5067172;28;20530;-93
2023/03/08 08:25:23;;;;;;;12.27;9.03;;;;;;;4.11;83.00;152418.66;5065252;28;20457;-95
2023/03/08 08:27:50;;;;;;;12.33;8.37;;;;;;;4.10;84.17;152417.34;5073875;28;20587;-94
2023/03/08 08:30:19;;;;;;;9.97;8.03;;;;;;;4.20;82.56;152441.84;5063381;28;20472;-93
2023/03/08 08:32:46;;;;;;;12.90;9.00;;;;;;;4.14;83.25;152426.38;5083667;28;20559;-94
2023/03/08 08:35:13;;;;;;;10.03;8.67;;;;;;;4.13;82.50;152423.84;5060167;28;20984;-94
2023/03/08 08:37:39;;;;;;;11.60;8.83;;;;;;;4.21;82.58;152445.69;5070966;28;20540;-94
2023/03/08 08:40:09;;;;;;;15.60;9.50;;;;;;;4.25;82.44;152454.72;5067130;28;20442;-95
2023/03/08 08:42:36;;;;;;;13.30;8.97;;;;;;;4.25;82.77;152454.72;5071255;28;20478;-94
2023/03/08 08:45:03;;;;;;;14.60;10.53;;;;;;;4.40;80.48;152493.34;5068782;28;20442;-94
2023/03/08 08:47:31;;;;;;;17.97;10.10;;;;;;;4.32;82.82;152472.75;5068128;28;20461;-93
2023/03/08 08:49:58;;;;;;;14.03;10.13;;;;;;;4.20;82.93;152441.84;5060208;28;20843;-93
2023/03/08 08:52:25;;;;;;;13.93;9.93;;;;;;;4.43;81.70;152501.09;5068248;28;20496;-94
2023/03/08 08:54:52;;;;;;;13.70;10.83;;;;;;;4.50;80.49;152517.84;5069115;28;20451;-94
2023/03/08 08:57:19;;;;;;;18.07;11.87;;;;;;;4.51;80.89;152521.69;5064123;28;20435;-95
2023/03/08 08:59:46;;;;;;;15.13;10.67;;;;;;;4.40;83.25;152492.06;5063830;28;20438;-94
2023/03/08 09:02:13;;;;;;;13.73;10.67;;;;;;;4.30;82.97;152468.91;5062189;28;20435;-94
2023/03/08 09:04:41;;;;;;;14.00;10.70;;;;;;;4.63;79.76;152552.59;5066387;28;20553;-94
2023/03/08 09:07:08;;;;;;;14.73;9.83;;;;;;;4.43;82.92;152501.09;5071033;28;20434;-95
2023/03/08 09:09:35;;;;;;;15.23;10.27;;;;;;;4.51;82.92;152521.69;5067147;28;20958;-94
2023/03/08 09:12:02;;;;;;;14.67;11.40;;;;;;;4.39;82.62;152489.50;5072123;28;20454;-94
2023/03/08 09:14:29;;;;;;;19.10;11.70;;;;;;;4.35;82.83;152480.47;5056631;28;20856;-94
2023/03/08 09:16:55;;;;;;;15.93;10.40;;;;;;;4.44;82.44;152503.69;5071939;28;20512;-94
2023/03/08 09:19:22;;;;;;;14.70;11.73;;;;;;;4.57;82.11;152537.19;5064511;28;20460;-94
2023/03/08 09:21:50;;;;;;;16.23;10.27;;;;;;;4.65;79.02;152557.78;5065155;28;20446;-94
2023/03/08 09:24:17;;;;;;;16.90;12.10;;;;;;;4.55;80.12;152532.03;5067735;28;20540;-94
2023/03/08 09:26:44;;;;;;;19.53;12.80;;;;;;;4.51;80.19;152520.41;5071612;28;20446;-94
2023/03/08 09:29:11;;;;;;;16.53;10.60;;;;;;;4.57;80.36;152537.19;5067170;28;20529;-94
2023/03/08 09:31:39;;;;;;;16.60;11.43;;;;;;;4.58;81.53;152539.72;5066835;28;20441;-95
2023/03/08 09:34:07;;;;;;;17.27;10.77;;;;;;;4.58;81.41;152538.47;5061549;28;20851;-94
2023/03/08 09:36:34;;;;;;;13.53;10.87;;;;;;;4.71;79.34;152573.22;5072859;28;20442;-94
2023/03/08 09:39:04;;;;;;;17.20;11.43;;;;;;;4.56;80.94;152534.59;5066734;28;20474;-94
2023/03/08 09:41:49;;;;;;;18.00;11.70;;;;;;;4.59;81.28;152541.03;5075597;28;20854;-94
2023/03/08 09:44:42;;;;;;;15.63;10.87;;;;;;;4.57;81.64;152537.19;5064943;28;20569;-93
2023/03/08 09:47:14;;;;;;;17.33;10.67;;;;;;;4.58;81.17;152538.47;5070263;28;20446;-95
2023/03/08 09:49:43;;;;;;;14.77;11.10;;;;;;;4.65;81.05;152556.50;5092054;28;20808;-94
2023/03/08 09:52:14;;;;;;;15.10;10.57;;;;;;;4.69;81.15;152566.78;5071319;28;20480;-94
2023/03/08 09:54:42;;;;;;;15.60;11.00;;;;;;;4.72;81.99;152575.81;5090082;28;20433;-94
2023/03/08 09:57:14;;;;;;;12.33;10.20;;;;;;;4.76;82.63;152586.16;5074364;28;20438;-94
2023/03/08 09:59:45;;;;;;;13.97;10.50;;;;;;;4.82;83.21;152600.28;5092939;28;20509;-94
2023/03/08 10:02:21;;;;;;;14.67;11.00;;;;;;;4.89;83.06;152619.66;5075096;28;20495;-94
2023/03/08 10:04:57;;;;;;;11.77;9.20;;;;;;;4.98;83.80;152640.28;5075610;28;20843;-94
2023/03/08 10:07:31;;;;;;;16.80;10.53;;;;;;;5.08;82.94;152667.34;5063948;28;20438;-94
2023/03/08 10:10:13;;;;;;;13.13;10.47;;;;;;;5.16;83.17;152686.66;5070599;28;20458;-93
2023/03/08 10:12:48;;;;;;;17.80;10.20;;;;;;;5.27;82.27;152715.03;5065487;28;20514;-94
2023/03/08 10:15:18;;;;;;;12.10;10.13;;;;;;;5.36;82.30;152739.50;5066366;28;20804;-94
2023/03/08 10:17:49;;;;;;;14.57;10.33;;;;;;;5.49;82.23;152771.72;5079068;28;20477;-94
2023/03/08 10:20:20;;;;;;;13.80;9.50;;;;;;;5.55;81.77;152787.22;5078750;28;20950;-93
2023/03/08 10:22:53;;;;;;;13.77;10.23;;;;;;;5.61;83.10;152801.41;5072422;28;20507;-94
2023/03/08 10:25:25;;;;;;;13.20;9.10;;;;;;;5.73;84.24;152832.34;5078199;28;20449;-93
2023/03/08 10:27:54;;;;;;;9.53;8.10;;;;;;;5.90;86.11;152876.25;5076256;28;20446;-94
2023/03/08 10:30:24;;;;;;;10.63;7.80;;;;;;;6.04;87.01;152912.34;5086262;28;20447;-93
2023/03/08 10:32:53;;;;;;;7.67;5.17;;;;;;;6.20;88.89;152953.63;5076984;28;20865;-94
2023/03/08 10:35:31;;;;;;;5.60;5.00;;;;;;;6.30;89.76;152978.16;5075086;28;20783;-95
2023/03/08 10:37:58;;;;;;;6.90;4.87;;;;;;;6.43;90.44;153011.72;5062744;28;20528;-95
2023/03/08 10:40:26;;;;;;;7.70;4.83;;;;;;;6.45;91.23;153016.88;5073079;28;20454;-93
2023/03/08 10:42:59;;;;;;;8.10;5.17;;;;;;;6.63;91.58;153063.31;5076384;28;20462;-93
2023/03/08 10:45:27;;;;;;;7.30;5.27;;;;;;;6.71;91.46;153085.28;5076027;28;20541;-93
2023/03/08 10:47:57;;;;;;;6.43;5.23;;;;;;;6.84;91.89;153117.53;5073055;28;20451;-92
2023/03/08 10:50:25;;;;;;;6.50;4.70;;;;;;;6.95;92.45;153145.94;5076955;28;20462;-93
2023/03/08 10:52:51;;;;;;;5.03;4.33;;;;;;;7.14;92.99;153193.72;5078206;28;20803;-92
2023/03/08 10:55:20;;;;;;;5.60;4.37;;;;;;;7.46;92.89;153275.06;5081538;28;20879;-92
2023/03/08 10:57:52;;;;;;;5.67;4.33;;;;;;;7.61;92.64;153315.09;5083322;28;20450;-93
2023/03/08 11:00:33;;;;;;;4.43;3.77;;;;;;;7.73;92.29;153344.81;5096720;28;20442;-92
2023/03/08 11:03:11;;;;;;;5.43;3.80;;;;;;;7.99;92.27;153412.00;5085458;28;20454;-92
2023/03/08 11:05:38;;;;;;;4.00;2.97;;;;;;;8.10;91.92;153440.38;5078707;28;20437;-92
2023/03/08 11:08:17;;;;;;;3.67;3.20;;;;;;;8.19;92.11;153462.38;5086200;28;20538;-92
2023/03/08 11:10:44;;;;;;;2.70;2.50;;;;;;;8.39;91.69;153514.13;5080989;28;20450;-92
2023/03/08 11:13:22;;;;;;;4.13;2.67;;;;;;;8.54;91.48;153552.91;5072095;28;20450;-93
2023/03/08 11:15:52;;;;;;;2.57;1.70;;;;;;;8.63;91.09;153574.88;5067834;28;20527;-92
2023/03/08 11:18:27;;;;;;;3.60;2.37;;;;;;;8.75;90.96;153605.91;5079046;28;20828;-92
2023/03/08 11:20:57;;;;;;;2.70;2.23;;;;;;;8.88;90.66;153639.50;5081609;28;20477;-92
2023/03/08 11:23:27;;;;;;;4.53;1.73;;;;;;;8.99;90.50;153667.97;5080625;28;20508;-91
2023/03/08 11:25:59;;;;;;;1.60;1.30;;;;;;;8.96;91.04;153660.19;5079075;28;20451;-93
2023/03/08 11:28:41;;;;;;;1.57;1.30;;;;;;;9.09;90.64;153693.81;5077088;28;20981;-93
2023/03/08 11:31:19;;;;;;;2.53;1.57;;;;;;;9.07;90.83;153688.66;5065729;28;20854;-93
2023/03/08 11:34:03;;;;;;;2.00;1.20;;;;;;;9.15;90.81;153709.34;5068886;28;20553;-93
2023/03/08 11:36:36;;;;;;;1.93;1.20;;;;;;;9.12;91.20;153702.88;5060664;28;20605;-92